createdAt,value
2023-05-03T00:00:14.802Z,11.63
2023-05-03T00:03:32.773Z,11.60
2023-05-03T00:06:50.996Z,11.56
2023-05-03T00:10:07.719Z,11.61
2023-05-03T00:13:23.923Z,11.59
2023-05-03T00:16:43.555Z,11.61
2023-05-03T00:20:05.697Z,11.58
2023-05-03T00:23:22.755Z,11.56
2023-05-03T00:26:39.196Z,11.58
2023-05-03T00:29:57.851Z,11.57
2023-05-03T00:33:14.026Z,11.54
2023-05-03T00:36:30.068Z,11.54
2023-05-03T00:39:46.531Z,11.46
2023-05-03T00:43:03.555Z,11.45
2023-05-03T00:46:20.803Z,11.41
2023-05-03T00:49:37.286Z,11.41
2023-05-03T00:52:53.804Z,11.41
2023-05-03T00:56:14.324Z,11.44
2023-05-03T00:59:33.260Z,11.39
2023-05-03T01:02:52.999Z,11.30
2023-05-03T01:06:17.176Z,11.23
2023-05-03T01:09:40.523Z,11.21
2023-05-03T01:13:05.173Z,11.29
2023-05-03T01:16:29.542Z,11.32
2023-05-03T01:19:49.915Z,11.31
2023-05-03T01:23:14.636Z,11.26
2023-05-03T01:26:34.338Z,11.20
2023-05-03T01:29:50.640Z,11.13
2023-05-03T01:33:13.976Z,11.08
2023-05-03T01:36:36.250Z,11.06
2023-05-03T01:39:57.921Z,11.03
2023-05-03T01:43:14.970Z,11.03
2023-05-03T01:46:31.863Z,11.01
2023-05-03T01:49:53.303Z,11.05
2023-05-03T01:53:09.750Z,11.05
2023-05-03T01:56:26.884Z,11.02
2023-05-03T01:59:43.333Z,11.12
2023-05-03T02:02:59.858Z,11.16
2023-05-03T02:06:17.030Z,11.15
2023-05-03T02:09:34.382Z,11.16
2023-05-03T02:12:51.184Z,11.15
2023-05-03T02:16:07.626Z,11.11
2023-05-03T02:19:23.923Z,11.08
2023-05-03T02:22:40.367Z,11.04
2023-05-03T02:25:56.694Z,10.99
2023-05-03T02:29:13.031Z,11.00
2023-05-03T02:32:30.040Z,11.06
2023-05-03T02:35:46.381Z,11.10
2023-05-03T02:39:02.622Z,11.12
2023-05-03T02:42:18.991Z,11.12
2023-05-03T02:45:35.751Z,11.08
2023-05-03T02:48:52.763Z,11.09
2023-05-03T02:52:09.630Z,11.10
2023-05-03T02:55:26.312Z,11.08
2023-05-03T02:58:42.968Z,11.10
2023-05-03T03:01:59.823Z,11.07
2023-05-03T03:05:17.501Z,11.09
2023-05-03T03:08:35.607Z,11.06
2023-05-03T03:11:52.693Z,11.06
2023-05-03T03:15:10.112Z,11.08
2023-05-03T03:18:26.646Z,11.09
2023-05-03T03:21:43.148Z,11.07
2023-05-03T03:25:00.511Z,11.06
2023-05-03T03:28:16.820Z,11.06
2023-05-03T03:31:33.910Z,11.06
2023-05-03T03:34:50.999Z,11.04
2023-05-03T03:38:07.617Z,11.07
2023-05-03T03:41:24.578Z,11.12
2023-05-03T03:44:41.819Z,11.13
2023-05-03T03:47:59.076Z,11.16
2023-05-03T03:51:15.792Z,11.20
2023-05-03T03:54:33.786Z,11.25
2023-05-03T03:57:50.991Z,11.28
2023-05-03T04:01:08.177Z,11.31
2023-05-03T04:04:25.534Z,11.28
2023-05-03T04:07:42.893Z,11.27
2023-05-03T04:10:59.528Z,11.28
2023-05-03T04:14:15.812Z,11.30
2023-05-03T04:17:35.889Z,11.33
2023-05-03T04:20:55.030Z,11.34
2023-05-03T04:24:15.333Z,11.35
2023-05-03T04:27:32.430Z,11.36
2023-05-03T04:30:50.831Z,11.38
2023-05-03T04:34:10.862Z,11.40
2023-05-03T04:37:28.412Z,11.38
2023-05-03T04:40:44.700Z,11.37
2023-05-03T04:44:01.381Z,11.37
2023-05-03T04:47:19.062Z,11.33
2023-05-03T04:50:35.563Z,11.35
2023-05-03T04:53:52.419Z,11.32
2023-05-03T04:57:11.297Z,11.31
2023-05-03T05:00:28.363Z,11.35
2023-05-03T05:03:46.527Z,11.38
2023-05-03T05:07:04.818Z,11.42
2023-05-03T05:10:22.646Z,11.48
2023-05-03T05:13:39.504Z,11.46
2023-05-03T05:16:56.087Z,11.48
2023-05-03T05:20:17.002Z,11.47
2023-05-03T05:23:35.529Z,11.47
2023-05-03T05:26:53.548Z,11.42
2023-05-03T05:30:10.583Z,11.41
2023-05-03T05:33:29.230Z,11.40
2023-05-03T05:36:46.584Z,11.45
2023-05-03T05:40:06.237Z,11.40
2023-05-03T05:43:22.408Z,11.36
2023-05-03T05:46:38.880Z,11.37
2023-05-03T05:49:56.196Z,11.35
2023-05-03T05:53:12.766Z,11.27
2023-05-03T05:56:30.932Z,11.33
2023-05-03T05:59:47.356Z,11.32
2023-05-03T06:03:03.853Z,11.39
2023-05-03T06:06:20.758Z,11.42
2023-05-03T06:09:37.075Z,11.37
2023-05-03T06:12:53.975Z,11.38
2023-05-03T06:16:12.655Z,11.39
2023-05-03T06:19:29.470Z,11.34
2023-05-03T06:22:46.444Z,11.37
2023-05-03T06:26:03.082Z,11.40
2023-05-03T06:29:19.595Z,11.39
2023-05-03T06:32:37.697Z,11.42
2023-05-03T06:35:55.394Z,11.44
2023-05-03T06:39:12.393Z,11.48
2023-05-03T06:42:28.782Z,11.48
2023-05-03T06:45:56.938Z,11.49
2023-05-03T06:49:13.654Z,11.52
2023-05-03T06:52:30.211Z,11.52
2023-05-03T06:55:46.934Z,11.52
2023-05-03T06:59:03.569Z,11.52
2023-05-03T07:02:20.239Z,11.52
2023-05-03T07:05:36.586Z,11.49
2023-05-03T07:08:52.870Z,11.49
2023-05-03T07:12:11.245Z,11.53
2023-05-03T07:15:27.901Z,11.55
2023-05-03T07:18:45.875Z,11.53
2023-05-03T07:22:04.157Z,11.54
2023-05-03T07:25:20.923Z,11.55
2023-05-03T07:28:38.549Z,11.57
2023-05-03T07:31:55.307Z,11.56
2023-05-03T07:35:13.150Z,11.48
2023-05-03T07:38:29.447Z,11.47
2023-05-03T07:41:45.850Z,11.48
2023-05-03T07:45:02.408Z,11.54
2023-05-03T07:48:18.789Z,11.49
2023-05-03T07:51:35.417Z,11.48
2023-05-03T07:54:53.564Z,11.52
2023-05-03T07:58:11.720Z,11.53
2023-05-03T08:01:28.213Z,11.55
2023-05-03T08:04:47.146Z,11.64
2023-05-03T08:08:04.884Z,11.68
2023-05-03T08:11:21.400Z,11.75
2023-05-03T08:14:38.096Z,11.80
2023-05-03T08:17:55.296Z,11.85
2023-05-03T08:21:13.743Z,11.90
2023-05-03T08:24:33.321Z,11.86
2023-05-03T08:27:54.511Z,11.91
2023-05-03T08:31:11.134Z,11.95
2023-05-03T08:34:28.024Z,11.99
2023-05-03T08:37:50.846Z,11.98
2023-05-03T08:41:18.166Z,12.05
2023-05-03T08:44:51.901Z,12.11
2023-05-03T08:48:08.712Z,12.14
2023-05-03T08:51:28.639Z,12.20
2023-05-03T08:54:48.032Z,12.27
2023-05-03T08:58:05.504Z,12.34
2023-05-03T09:01:22.072Z,12.38
2023-05-03T09:04:43.712Z,12.39
2023-05-03T09:08:14.366Z,12.43
2023-05-03T09:11:37.322Z,12.50
2023-05-03T09:14:54.364Z,12.44
2023-05-03T09:18:24.268Z,12.36
2023-05-03T09:21:40.982Z,12.37
2023-05-03T09:25:05.022Z,12.38
2023-05-03T09:28:22.293Z,12.39
2023-05-03T09:31:43.105Z,12.38
2023-05-03T09:35:05.728Z,12.42
2023-05-03T09:38:33.435Z,12.50
2023-05-03T09:41:50.028Z,12.66
2023-05-03T09:45:09.436Z,12.72
2023-05-03T09:48:32.358Z,12.77
2023-05-03T09:51:50.349Z,12.76
2023-05-03T09:55:17.742Z,12.78
2023-05-03T09:58:36.420Z,12.78
2023-05-03T10:01:53.922Z,12.74
2023-05-03T10:05:12.326Z,12.66
2023-05-03T10:08:34.294Z,12.68
2023-05-03T10:11:54.117Z,12.65
2023-05-03T10:15:14.306Z,12.67
2023-05-03T10:18:34.614Z,12.71
2023-05-03T10:22:04.895Z,12.74
2023-05-03T10:25:22.393Z,12.80
2023-05-03T10:28:41.131Z,12.76
2023-05-03T10:31:58.150Z,12.83
2023-05-03T10:35:20.027Z,12.81
2023-05-03T10:38:37.759Z,12.84
2023-05-03T10:42:08.918Z,12.84
2023-05-03T10:45:35.315Z,12.81
2023-05-03T10:48:56.433Z,12.76
2023-05-03T10:52:27.536Z,12.78
2023-05-03T10:55:44.706Z,12.74
2023-05-03T10:59:06.445Z,12.76
2023-05-03T11:02:27.182Z,12.75
2023-05-03T11:05:46.333Z,12.61
2023-05-03T11:09:08.834Z,12.64
2023-05-03T11:12:25.336Z,12.53
2023-05-03T11:15:43.036Z,12.43
2023-05-03T11:19:05.591Z,12.37
2023-05-03T11:22:22.646Z,12.29
2023-05-03T11:25:40.521Z,12.11
2023-05-03T11:28:57.112Z,12.04
2023-05-03T11:32:21.127Z,12.03
2023-05-03T11:35:40.095Z,11.94
2023-05-03T11:38:59.441Z,11.95
2023-05-03T11:42:16.792Z,12.01
2023-05-03T11:45:37.149Z,11.98
2023-05-03T11:48:56.039Z,11.96
2023-05-03T11:52:15.554Z,11.90
2023-05-03T11:55:32.806Z,11.95
2023-05-03T11:59:01.756Z,12.01
2023-05-03T12:02:20.637Z,12.05
2023-05-03T12:05:35.384Z,12.10
2023-05-03T12:08:52.273Z,12.10
2023-05-03T12:12:11.220Z,12.00
2023-05-03T12:15:40.323Z,12.02
2023-05-03T12:19:02.199Z,12.05
2023-05-03T12:22:30.582Z,12.06
2023-05-03T12:25:49.370Z,12.06
2023-05-03T12:29:06.769Z,12.06
2023-05-03T12:32:23.629Z,12.06
2023-05-03T12:35:41.347Z,12.05
2023-05-03T12:39:01.521Z,12.07
2023-05-03T12:42:16.351Z,12.14
2023-05-03T12:45:35.300Z,12.13
2023-05-03T12:48:54.050Z,12.13
2023-05-03T12:52:36.231Z,12.07
2023-05-03T13:05:35.461Z,12.04
2023-05-03T13:08:50.252Z,11.98
2023-05-03T13:12:05.767Z,11.97
2023-05-03T13:15:24.452Z,11.94
2023-05-03T13:18:40.098Z,11.78
2023-05-03T13:21:58.318Z,11.83
2023-05-03T13:25:22.050Z,11.86
2023-05-03T13:28:38.352Z,11.83
2023-05-03T13:31:54.987Z,11.72
2023-05-03T13:35:13.203Z,11.73
2023-05-03T13:38:29.691Z,11.75
2023-05-03T13:41:48.203Z,11.78
2023-05-03T13:45:04.755Z,11.78
2023-05-03T13:48:21.064Z,11.72
2023-05-03T13:51:37.598Z,11.75
2023-05-03T13:54:55.435Z,11.79
2023-05-03T13:58:11.815Z,11.79
2023-05-03T14:01:28.191Z,11.80
2023-05-03T14:04:44.613Z,11.75
2023-05-03T14:08:01.514Z,11.72
2023-05-03T14:11:25.613Z,11.51
2023-05-03T14:14:42.707Z,11.59
2023-05-03T14:18:01.305Z,11.64
2023-05-03T14:21:19.390Z,11.64
2023-05-03T14:24:36.189Z,11.52
2023-05-03T14:27:52.697Z,11.12
2023-05-03T14:31:10.724Z,11.22
2023-05-03T14:34:27.453Z,11.33
2023-05-03T14:37:43.965Z,11.22
2023-05-03T14:41:01.427Z,11.21
2023-05-03T14:44:21.169Z,11.19
2023-05-03T14:47:49.829Z,11.27
2023-05-03T14:51:06.525Z,11.35
2023-05-03T14:54:28.744Z,11.20
2023-05-03T14:57:46.063Z,11.24
2023-05-03T15:01:06.183Z,11.16
2023-05-03T15:04:27.628Z,11.21
2023-05-03T15:07:50.576Z,11.15
2023-05-03T15:11:10.485Z,11.13
2023-05-03T15:14:27.445Z,11.10
2023-05-03T15:17:47.663Z,11.13
2023-05-03T15:21:08.376Z,11.24
2023-05-03T15:24:27.404Z,11.37
2023-05-03T15:27:45.562Z,11.40
2023-05-03T15:31:06.671Z,11.44
2023-05-03T15:34:23.936Z,11.47
2023-05-03T15:37:46.671Z,11.29
2023-05-03T15:41:07.834Z,11.32
2023-05-03T15:44:24.925Z,11.35
2023-05-03T15:47:42.067Z,11.44
2023-05-03T15:51:00.883Z,11.49
2023-05-03T15:54:23.568Z,11.44
2023-05-03T15:57:42.043Z,11.54
2023-05-03T16:00:59.880Z,11.56
2023-05-03T16:04:20.537Z,11.46
2023-05-03T16:07:39.227Z,11.33
2023-05-03T16:10:56.719Z,11.30
2023-05-03T16:14:13.542Z,11.29
2023-05-03T16:17:32.712Z,11.12
2023-05-03T16:20:49.578Z,11.06
2023-05-03T16:24:06.291Z,11.17
2023-05-03T16:27:24.729Z,11.14
2023-05-03T16:30:43.457Z,10.94
2023-05-03T16:34:02.888Z,10.99
2023-05-03T16:37:17.171Z,11.14
2023-05-03T16:40:34.363Z,11.05
2023-05-03T16:43:50.864Z,11.15
2023-05-03T16:47:09.533Z,11.16
2023-05-03T16:50:28.410Z,11.07
2023-05-03T16:53:44.941Z,11.14
2023-05-03T16:57:03.184Z,11.05
2023-05-03T17:00:22.790Z,11.04
2023-05-03T17:03:39.741Z,11.10
2023-05-03T17:06:57.153Z,11.07
2023-05-03T17:10:16.032Z,11.06
2023-05-03T17:13:33.240Z,11.16
2023-05-03T17:16:52.212Z,11.14
2023-05-03T17:20:08.787Z,11.22
2023-05-03T17:23:25.137Z,11.24
2023-05-03T17:26:42.017Z,11.13
2023-05-03T17:30:00.351Z,10.92
2023-05-03T17:33:22.113Z,10.79
2023-05-03T17:36:42.540Z,10.81
2023-05-03T17:39:59.802Z,10.78
2023-05-03T17:43:18.742Z,10.79
2023-05-03T17:46:35.863Z,10.85
2023-05-03T17:49:52.747Z,10.95
2023-05-03T17:53:09.222Z,10.95
2023-05-03T17:56:27.004Z,10.86
2023-05-03T17:59:45.092Z,10.91
2023-05-03T18:03:01.960Z,10.92
2023-05-03T18:06:21.160Z,10.85
2023-05-03T18:09:38.078Z,10.76
2023-05-03T18:12:54.796Z,10.67
2023-05-03T18:16:13.231Z,10.66
2023-05-03T18:19:30.326Z,10.66
2023-05-03T18:22:46.931Z,10.66
2023-05-03T18:26:04.809Z,10.70
2023-05-03T18:29:21.197Z,10.66
2023-05-03T18:32:38.320Z,10.59
2023-05-03T18:35:58.918Z,10.68
2023-05-03T18:39:18.848Z,10.75
2023-05-03T18:42:37.617Z,10.65
2023-05-03T18:45:54.715Z,10.61
2023-05-03T18:49:11.597Z,10.57
2023-05-03T18:52:28.700Z,10.59
2023-05-03T18:55:45.463Z,10.57
2023-05-03T18:59:02.030Z,10.58
2023-05-03T19:02:19.328Z,10.63
2023-05-03T19:05:36.019Z,10.61
2023-05-03T19:08:52.655Z,10.59
2023-05-03T19:12:09.668Z,10.60
2023-05-03T19:15:26.966Z,10.63
2023-05-03T19:18:46.973Z,10.55
2023-05-03T19:22:04.067Z,10.55
2023-05-03T19:25:22.442Z,10.50
2023-05-03T19:28:39.056Z,10.51
2023-05-03T19:31:56.197Z,10.49
2023-05-03T19:35:14.223Z,10.50
2023-05-03T19:38:34.802Z,10.49
2023-05-03T19:41:54.085Z,10.48
2023-05-03T19:45:13.840Z,10.46
2023-05-03T19:48:30.227Z,10.46
2023-05-03T19:51:47.017Z,10.45
2023-05-03T19:55:06.953Z,10.54
2023-05-03T19:58:23.757Z,10.61
2023-05-03T20:01:40.823Z,10.65
2023-05-03T20:04:57.479Z,10.67
2023-05-03T20:08:14.220Z,10.63
2023-05-03T20:11:31.130Z,10.57
2023-05-03T20:14:47.690Z,10.47
2023-05-03T20:18:05.364Z,10.43
2023-05-03T20:21:22.382Z,10.49
2023-05-03T20:24:39.335Z,10.53
2023-05-03T20:27:56.971Z,10.52
2023-05-03T20:31:14.750Z,10.46
2023-05-03T20:34:31.235Z,10.48
2023-05-03T20:37:48.080Z,10.46
2023-05-03T20:41:04.761Z,10.47
2023-05-03T20:44:21.080Z,10.46
2023-05-03T20:47:37.517Z,10.51
2023-05-03T20:50:55.429Z,10.52
2023-05-03T20:54:12.258Z,10.50
2023-05-03T20:57:28.659Z,10.47
2023-05-03T21:00:45.021Z,10.49
2023-05-03T21:04:01.344Z,10.43
2023-05-03T21:07:21.619Z,10.38
2023-05-03T21:10:38.012Z,10.36
2023-05-03T21:13:54.680Z,10.38
2023-05-03T21:17:13.289Z,10.31
2023-05-03T21:20:31.137Z,10.25
2023-05-03T21:23:47.655Z,10.25
2023-05-03T21:27:05.614Z,10.29
2023-05-03T21:30:23.219Z,10.34
2023-05-03T21:33:40.590Z,10.33
2023-05-03T21:36:58.376Z,10.28
2023-05-03T21:40:17.986Z,10.18
2023-05-03T21:43:35.238Z,10.04
2023-05-03T21:46:52.040Z,10.04
2023-05-03T21:50:10.465Z,10.07
2023-05-03T21:53:27.055Z,10.07
2023-05-03T21:56:43.374Z,10.00
2023-05-03T21:59:59.816Z,10.04
2023-05-03T22:03:16.613Z,10.07
2023-05-03T22:06:33.321Z,10.07
2023-05-03T22:09:53.118Z,10.10
2023-05-03T22:13:09.461Z,10.08
2023-05-03T22:16:26.365Z,10.07
2023-05-03T22:19:45.609Z,10.04
2023-05-03T22:23:01.929Z,10.01
2023-05-03T22:26:18.434Z,10.01
2023-05-03T22:29:35.703Z,10.01
2023-05-03T22:32:52.806Z,9.98
2023-05-03T22:36:09.395Z,9.91
2023-05-03T22:39:25.690Z,9.93
2023-05-03T22:42:41.981Z,9.95
2023-05-03T22:45:58.321Z,9.92
2023-05-03T22:49:15.236Z,9.92
2023-05-03T22:52:31.892Z,9.96
2023-05-03T22:55:48.854Z,9.94
2023-05-03T22:59:05.129Z,9.96
2023-05-03T23:02:21.588Z,10.00
2023-05-03T23:05:38.449Z,10.00
2023-05-03T23:08:54.848Z,10.00
2023-05-03T23:12:12.675Z,10.02
2023-05-03T23:15:29.163Z,10.04
2023-05-03T23:18:46.090Z,10.05
2023-05-03T23:22:02.467Z,10.01
2023-05-03T23:25:19.708Z,9.92
2023-05-03T23:28:36.396Z,9.94
2023-05-03T23:31:53.272Z,10.00
2023-05-03T23:35:11.283Z,9.99
2023-05-03T23:38:27.941Z,9.97
2023-05-03T23:41:44.299Z,9.99
2023-05-03T23:45:00.740Z,10.01
2023-05-03T23:48:17.472Z,10.03
2023-05-03T23:51:35.321Z,10.07
2023-05-03T23:54:56.915Z,10.08
2023-05-03T23:58:13.200Z,10.06
